Time;durP1;ratioP1;P1;durP2;ratioP2;P2;SDS_P1;SDS_P2;PMS_P1;PMS_P2;Temp;Humidity;BMP_temperature;BMP_pressure;BME280_temperature;BME280_humidity;BME280_pressure;Samples;Min_cycle;Max_cycle;Signal;HPM_P1;HPM_P2
2022/01/07 00:01:55;;;;;;;23.45;7.63;;;3.30;99.90;;;;;;5032603;28;20070;-85
2022/01/07 00:04:27;;;;;;;20.38;6.93;;;3.30;99.90;;;;;;5022894;28;20483;-86
2022/01/07 00:06:53;;;;;;;23.33;7.20;;;3.30;99.90;;;;;;5027080;28;20089;-86
2022/01/07 00:09:19;;;;;;;13.82;6.65;;;3.30;99.90;;;;;;5004477;28;20040;-88
2022/01/07 00:11:46;;;;;;;24.60;7.47;;;3.30;99.90;;;;;;5034936;28;20036;-90
2022/01/07 00:14:18;;;;;;;24.70;7.00;;;3.30;99.90;;;;;;5040513;28;20043;-86
2022/01/07 00:16:44;;;;;;;21.13;7.22;;;3.30;99.90;;;;;;5039766;28;20118;-86
2022/01/07 00:19:10;;;;;;;17.17;7.22;;;3.40;99.90;;;;;;5047890;28;20164;-86
2022/01/07 00:21:36;;;;;;;20.52;7.22;;;3.40;99.90;;;;;;5007415;28;20103;-86
2022/01/07 00:24:07;;;;;;;21.52;6.38;;;3.30;99.90;;;;;;4995221;28;20040;-87
2022/01/07 00:26:34;;;;;;;23.10;6.55;;;3.30;99.90;;;;;;5027199;28;20131;-86
2022/01/07 00:28:59;;;;;;;17.92;6.40;;;3.30;99.90;;;;;;5038969;28;20497;-86
2022/01/07 00:31:31;;;;;;;17.50;6.78;;;3.30;99.90;;;;;;5021589;28;20028;-86
2022/01/07 00:33:57;;;;;;;18.98;6.78;;;3.30;99.90;;;;;;5017496;28;20048;-86
2022/01/07 00:36:23;;;;;;;16.75;6.40;;;3.30;99.90;;;;;;5020025;28;20062;-86
2022/01/07 00:38:49;;;;;;;20.65;7.35;;;3.40;99.90;;;;;;5032516;28;20040;-85
2022/01/07 00:41:15;;;;;;;18.63;6.38;;;3.30;99.90;;;;;;5026642;28;20036;-87
2022/01/07 00:44:03;;;;;;;19.08;6.72;;;3.30;99.90;;;;;;5039904;28;20036;-86
2022/01/07 00:46:31;;;;;;;20.70;7.43;;;3.40;99.90;;;;;;5026100;28;20395;-85
2022/01/07 00:48:56;;;;;;;18.38;5.72;;;3.40;99.90;;;;;;5037386;28;20155;-86
2022/01/07 00:51:22;;;;;;;17.45;6.25;;;3.40;99.90;;;;;;5007136;28;20260;-85
2022/01/07 00:53:48;;;;;;;19.23;5.97;;;3.40;99.90;;;;;;5005591;28;20037;-87
2022/01/07 00:56:16;;;;;;;20.17;6.78;;;3.40;99.90;;;;;;5027109;28;20181;-85
2022/01/07 00:58:42;;;;;;;17.73;6.45;;;3.40;99.90;;;;;;5019264;28;20398;-85
2022/01/07 01:01:08;;;;;;;25.48;7.45;;;3.40;99.90;;;;;;5008186;28;20485;-87
2022/01/07 01:03:34;;;;;;;19.27;6.40;;;3.30;99.90;;;;;;5033973;28;20412;-86
2022/01/07 01:06:00;;;;;;;19.30;6.72;;;3.30;99.90;;;;;;5030564;28;20041;-86
2022/01/07 01:08:26;;;;;;;17.95;6.63;;;3.30;99.90;;;;;;5026078;28;20073;-88
2022/01/07 01:10:53;;;;;;;23.73;7.20;;;3.20;99.90;;;;;;5013862;28;20495;-87
2022/01/07 01:13:20;;;;;;;15.55;6.78;;;3.20;99.90;;;;;;5037186;28;20098;-85
2022/01/07 01:15:46;;;;;;;22.48;6.97;;;3.10;99.90;;;;;;5028181;28;20067;-85
2022/01/07 01:18:12;;;;;;;16.65;6.75;;;3.00;99.90;;;;;;5026958;28;20048;-87
2022/01/07 01:20:37;;;;;;;18.80;7.25;;;3.00;99.90;;;;;;5041509;28;20036;-85
2022/01/07 01:23:03;;;;;;;25.67;8.15;;;2.90;99.90;;;;;;5039975;28;20075;-85
2022/01/07 01:25:29;;;;;;;25.20;7.90;;;2.90;99.90;;;;;;5036612;28;20048;-86
2022/01/07 01:27:55;;;;;;;21.92;9.00;;;2.80;99.90;;;;;;5018003;28;20316;-86
2022/01/07 01:30:21;;;;;;;18.73;7.85;;;2.80;99.90;;;;;;5045172;28;20032;-85
2022/01/07 01:32:48;;;;;;;22.85;7.57;;;2.70;99.90;;;;;;5044828;28;20070;-85
2022/01/07 01:35:16;;;;;;;22.02;8.35;;;2.70;99.90;;;;;;5020153;28;20041;-86
2022/01/07 01:37:42;;;;;;;18.02;6.97;;;2.70;99.90;;;;;;5014968;28;20403;-85
2022/01/07 01:40:09;;;;;;;31.90;8.98;;;2.60;99.90;;;;;;5027746;28;20071;-85
2022/01/07 01:42:35;;;;;;;25.30;8.60;;;2.60;99.90;;;;;;5002684;28;20040;-85
2022/01/07 01:45:01;;;;;;;22.23;8.63;;;2.60;99.90;;;;;;5020614;28;20079;-85
2022/01/07 01:47:27;;;;;;;25.23;9.52;;;2.50;99.90;;;;;;5041636;28;20067;-85
2022/01/07 01:49:53;;;;;;;24.17;9.15;;;2.50;99.90;;;;;;5048794;28;20386;-85
2022/01/07 01:52:18;;;;;;;17.00;8.35;;;2.50;99.90;;;;;;5021401;28;20077;-87
2022/01/07 01:54:44;;;;;;;29.10;8.98;;;2.60;99.90;;;;;;5021293;28;20032;-87
2022/01/07 01:57:11;;;;;;;27.20;10.23;;;2.50;99.90;;;;;;5019201;28;20063;-86
2022/01/07 01:59:37;;;;;;;19.40;8.98;;;2.50;99.90;;;;;;5039886;28;20032;-87
2022/01/07 02:02:03;;;;;;;26.23;9.70;;;2.50;99.90;;;;;;5006643;28;20044;-85
2022/01/07 02:04:29;;;;;;;21.50;8.68;;;2.40;99.90;;;;;;5034013;28;20783;-87
2022/01/07 02:06:56;;;;;;;21.15;9.70;;;2.40;99.90;;;;;;5018580;28;20395;-85
2022/01/07 02:09:30;;;;;;;20.13;10.55;;;2.40;99.90;;;;;;5027837;28;20395;-85
2022/01/07 02:11:56;;;;;;;30.45;11.38;;;2.40;99.90;;;;;;5034546;28;20623;-86
2022/01/07 02:14:22;;;;;;;22.55;10.43;;;2.40;99.90;;;;;;5055538;28;20032;-85
2022/01/07 02:16:48;;;;;;;30.55;11.30;;;2.40;99.90;;;;;;5019292;28;20537;-85
2022/01/07 02:19:14;;;;;;;25.33;10.70;;;2.40;99.90;;;;;;5007678;28;20123;-86
2022/01/07 02:21:40;;;;;;;27.05;11.60;;;2.40;99.90;;;;;;5024441;28;20047;-86
2022/01/07 02:24:06;;;;;;;26.52;11.10;;;2.40;99.90;;;;;;5036224;28;20462;-85
2022/01/07 02:26:33;;;;;;;26.23;11.55;;;2.40;99.90;;;;;;5022798;28;20043;-86
2022/01/07 02:29:00;;;;;;;31.33;11.93;;;2.40;99.90;;;;;;5028977;28;20124;-86
2022/01/07 02:31:25;;;;;;;28.58;12.70;;;2.40;99.90;;;;;;5024288;28;20665;-87
2022/01/07 02:33:54;;;;;;;25.83;11.98;;;2.40;99.90;;;;;;5031811;28;20572;-88
2022/01/07 02:36:19;;;;;;;30.58;13.38;;;2.40;99.90;;;;;;5020440;28;20040;-85
2022/01/07 02:38:45;;;;;;;30.35;12.93;;;2.40;99.90;;;;;;5021719;28;20043;-85
2022/01/07 02:41:11;;;;;;;30.35;12.95;;;2.40;99.90;;;;;;5023378;28;20036;-85
2022/01/07 02:43:37;;;;;;;37.30;14.55;;;2.30;99.90;;;;;;5049601;28;20134;-86
2022/01/07 02:46:03;;;;;;;27.60;11.40;;;2.40;99.90;;;;;;5023968;28;20255;-84
2022/01/07 02:48:29;;;;;;;32.47;14.18;;;2.30;99.90;;;;;;5021720;28;20040;-85
2022/01/07 02:50:55;;;;;;;31.05;14.20;;;2.40;99.90;;;;;;5019097;28;20716;-86
2022/01/07 02:53:21;;;;;;;30.33;14.88;;;2.40;99.90;;;;;;5035541;28;20032;-87
2022/01/07 02:55:47;;;;;;;39.30;16.00;;;2.40;99.90;;;;;;5003168;28;20461;-86
2022/01/07 02:58:13;;;;;;;35.35;14.43;;;2.30;99.90;;;;;;5004592;28;20044;-85
2022/01/07 03:00:38;;;;;;;30.52;14.75;;;2.30;99.90;;;;;;5020550;28;20040;-83
2022/01/07 03:03:06;;;;;;;26.40;13.75;;;2.30;99.90;;;;;;5000022;28;20040;-86
2022/01/07 03:05:32;;;;;;;34.33;16.60;;;2.30;99.90;;;;;;5036452;28;20040;-84
2022/01/07 03:07:58;;;;;;;34.55;15.18;;;2.30;99.90;;;;;;5010214;28;20388;-87
2022/01/07 03:10:29;;;;;;;32.63;14.60;;;2.20;99.90;;;;;;5007541;28;20180;-84
2022/01/07 03:12:55;;;;;;;32.55;16.90;;;2.30;99.90;;;;;;5031178;28;20036;-85
2022/01/07 03:15:22;;;;;;;35.67;13.88;;;2.20;99.90;;;;;;5031268;28;20043;-85
2022/01/07 03:17:47;;;;;;;39.63;17.40;;;2.30;99.90;;;;;;5038211;28;20043;-85
2022/01/07 03:20:16;;;;;;;29.75;15.57;;;2.30;99.90;;;;;;5016723;28;20046;-86
2022/01/07 03:22:45;;;;;;;33.47;16.35;;;2.20;99.90;;;;;;5035992;28;20043;-85
2022/01/07 03:25:12;;;;;;;39.15;17.83;;;2.20;99.90;;;;;;5046846;28;20075;-85
2022/01/07 03:27:38;;;;;;;31.60;14.82;;;2.20;99.90;;;;;;5030578;28;20403;-86
2022/01/07 03:30:06;;;;;;;38.50;17.75;;;2.30;99.90;;;;;;5012749;28;20577;-85
2022/01/07 03:32:33;;;;;;;35.22;17.38;;;2.20;99.90;;;;;;5040797;28;20051;-83
2022/01/07 03:34:59;;;;;;;29.15;14.68;;;2.20;99.90;;;;;;5022961;28;20577;-84
2022/01/07 03:37:25;;;;;;;35.47;18.65;;;2.30;99.90;;;;;;5023045;28;20052;-85
2022/01/07 03:39:50;;;;;;;35.38;16.35;;;2.30;99.90;;;;;;5037223;28;20062;-86
2022/01/07 03:42:16;;;;;;;33.92;16.60;;;2.30;99.90;;;;;;5021120;28;20071;-83
2022/01/07 03:44:42;;;;;;;30.13;16.58;;;2.30;99.90;;;;;;4999701;28;21489;-85
2022/01/07 03:47:08;;;;;;;38.13;17.65;;;2.30;99.90;;;;;;5017405;28;20036;-86
2022/01/07 03:49:34;;;;;;;34.75;15.27;;;2.30;99.90;;;;;;5051615;28;20076;-85
2022/01/07 03:52:00;;;;;;;34.25;18.42;;;2.40;99.90;;;;;;5018753;28;20280;-85
2022/01/07 03:54:25;;;;;;;24.60;13.65;;;2.30;99.90;;;;;;5007485;28;20052;-85
2022/01/07 03:56:51;;;;;;;27.98;15.70;;;2.30;99.90;;;;;;5031116;28;20056;-86
2022/01/07 03:59:17;;;;;;;26.30;14.95;;;2.30;99.90;;;;;;5021849;28;20045;-86
2022/01/07 04:01:43;;;;;;;32.60;16.92;;;2.30;99.90;;;;;;5007389;28;20050;-86
2022/01/07 04:04:08;;;;;;;32.90;17.55;;;2.30;99.90;;;;;;5030298;28;20519;-86
2022/01/07 04:06:34;;;;;;;33.63;16.38;;;2.40;99.90;;;;;;5022345;28;20043;-86
2022/01/07 04:09:00;;;;;;;33.40;17.75;;;2.40;99.90;;;;;;5000546;28;20450;-85
2022/01/07 04:11:26;;;;;;;31.45;16.35;;;2.40;99.90;;;;;;5024031;28;20157;-86
2022/01/07 04:13:54;;;;;;;35.65;18.02;;;2.40;99.90;;;;;;5005280;28;20121;-86
2022/01/07 04:16:20;;;;;;;31.85;17.38;;;2.40;99.90;;;;;;5035214;28;20089;-86
2022/01/07 04:18:46;;;;;;;33.53;15.90;;;2.40;99.90;;;;;;5024897;28;20148;-85
2022/01/07 04:21:11;;;;;;;40.47;18.55;;;2.40;99.90;;;;;;5013794;28;20036;-86
2022/01/07 04:23:37;;;;;;;31.08;16.33;;;2.50;99.90;;;;;;5035186;28;20044;-85
2022/01/07 04:26:03;;;;;;;24.33;15.52;;;2.40;99.90;;;;;;5004807;28;20051;-85
2022/01/07 04:28:29;;;;;;;31.25;15.95;;;2.40;99.90;;;;;;5017291;28;20036;-85
2022/01/07 04:30:54;;;;;;;31.80;16.65;;;2.50;99.90;;;;;;5014965;28;22021;-84
2022/01/07 04:33:29;;;;;;;28.80;15.13;;;2.50;99.90;;;;;;5002349;28;20551;-84
2022/01/07 04:35:55;;;;;;;36.15;16.88;;;2.50;99.90;;;;;;5035751;28;20048;-85
2022/01/07 04:38:22;;;;;;;26.42;13.68;;;2.50;99.90;;;;;;5024445;28;20089;-85
2022/01/07 04:40:47;;;;;;;34.28;16.77;;;2.50;99.90;;;;;;5019853;28;20044;-85
2022/01/07 04:43:13;;;;;;;30.85;16.85;;;2.50;99.90;;;;;;5037857;28;20043;-86
2022/01/07 04:45:42;;;;;;;29.00;15.48;;;2.50;99.90;;;;;;5040820;28;20625;-85
2022/01/07 04:48:09;;;;;;;32.38;16.63;;;2.50;99.90;;;;;;5043838;28;20028;-86
2022/01/07 04:50:35;;;;;;;31.77;16.00;;;2.50;99.90;;;;;;5044834;28;20079;-86
2022/01/07 04:53:02;;;;;;;21.63;12.50;;;2.50;99.90;;;;;;5023819;28;20060;-86
2022/01/07 04:55:35;;;;;;;26.13;13.80;;;2.50;99.90;;;;;;5027266;28;20074;-85
2022/01/07 04:58:02;;;;;;;23.88;13.15;;;2.60;99.90;;;;;;5035304;28;20220;-85
2022/01/07 05:00:28;;;;;;;29.48;13.88;;;2.60;99.90;;;;;;5001296;28;20041;-88
2022/01/07 05:02:54;;;;;;;24.77;15.07;;;2.60;99.90;;;;;;5026098;28;20039;-85
2022/01/07 05:05:19;;;;;;;28.77;13.15;;;2.60;99.90;;;;;;5022737;28;20442;-85
2022/01/07 05:07:45;;;;;;;28.85;14.77;;;2.60;99.90;;;;;;5026827;28;20547;-87
2022/01/07 05:10:13;;;;;;;23.65;14.82;;;2.60;99.90;;;;;;5015113;28;20037;-85
2022/01/07 05:12:39;;;;;;;28.45;13.60;;;2.60;99.90;;;;;;5023362;28;20032;-86
2022/01/07 05:15:07;;;;;;;36.30;16.65;;;2.60;99.90;;;;;;5025677;28;20044;-86
2022/01/07 05:17:33;;;;;;;24.30;14.20;;;2.60;99.90;;;;;;5004794;28;20040;-85
2022/01/07 05:19:59;;;;;;;24.35;14.10;;;2.60;99.90;;;;;;5030237;28;20048;-86
2022/01/07 05:22:24;;;;;;;24.00;13.15;;;2.60;99.90;;;;;;4999908;28;20040;-85
2022/01/07 05:24:51;;;;;;;27.20;14.45;;;2.60;99.90;;;;;;5029900;28;20040;-84
2022/01/07 05:27:17;;;;;;;23.40;14.25;;;2.60;99.90;;;;;;5012786;28;20127;-85
2022/01/07 05:29:45;;;;;;;25.02;13.65;;;2.60;99.90;;;;;;5025844;28;20043;-85
2022/01/07 05:32:11;;;;;;;24.45;13.50;;;2.60;99.90;;;;;;5034649;28;20032;-86
2022/01/07 05:34:37;;;;;;;28.77;14.32;;;2.60;99.90;;;;;;5012782;28;20576;-85
2022/01/07 05:37:03;;;;;;;32.40;15.80;;;2.60;99.90;;;;;;5012530;28;20070;-84
2022/01/07 05:39:29;;;;;;;21.83;13.27;;;2.70;99.90;;;;;;5041804;28;20068;-85
2022/01/07 05:41:54;;;;;;;25.85;12.18;;;2.60;99.90;;;;;;4994300;28;20733;-85
2022/01/07 05:44:21;;;;;;;24.85;13.48;;;2.70;99.90;;;;;;5012059;28;20032;-85
2022/01/07 05:46:47;;;;;;;25.67;13.10;;;2.60;99.90;;;;;;4996833;28;20150;-85
2022/01/07 05:49:13;;;;;;;19.15;12.18;;;2.70;99.90;;;;;;5018357;28;20569;-85
2022/01/07 05:51:41;;;;;;;19.70;12.88;;;2.70;99.90;;;;;;5030882;28;20462;-86
2022/01/07 05:54:08;;;;;;;20.63;12.50;;;2.70;99.90;;;;;;5027077;28;20121;-86
2022/01/07 05:56:34;;;;;;;21.17;13.20;;;2.70;99.90;;;;;;5021527;28;20414;-85
2022/01/07 05:58:59;;;;;;;21.70;12.10;;;2.70;99.90;;;;;;4998413;28;20086;-87
2022/01/07 06:01:25;;;;;;;17.33;11.07;;;2.60;99.90;;;;;;5020481;28;20555;-84
2022/01/07 06:03:51;;;;;;;18.15;11.40;;;2.70;99.90;;;;;;5017817;28;20253;-86
2022/01/07 06:06:17;;;;;;;19.05;11.70;;;2.70;99.90;;;;;;5038472;28;20046;-85
2022/01/07 06:08:42;;;;;;;18.52;11.82;;;2.70;99.90;;;;;;5023261;28;20040;-85
2022/01/07 06:11:08;;;;;;;14.52;10.88;;;2.70;99.90;;;;;;5052372;28;20413;-87
2022/01/07 06:13:37;;;;;;;20.60;11.85;;;2.70;99.90;;;;;;5020612;28;20621;-84
2022/01/07 06:16:03;;;;;;;17.17;11.23;;;2.70;99.90;;;;;;5027168;28;20059;-86
2022/01/07 06:18:29;;;;;;;15.50;10.43;;;2.70;99.90;;;;;;5021190;28;20048;-86
2022/01/07 06:20:55;;;;;;;16.38;11.00;;;2.70;99.90;;;;;;4998434;28;20044;-86
2022/01/07 06:23:24;;;;;;;19.90;10.85;;;2.80;99.90;;;;;;4988496;28;20042;-86
2022/01/07 06:25:50;;;;;;;16.48;11.10;;;2.80;99.90;;;;;;5021202;28;20508;-87
2022/01/07 06:28:19;;;;;;;27.60;13.20;;;2.80;99.90;;;;;;4999575;28;20032;-85
2022/01/07 06:30:45;;;;;;;18.83;11.35;;;2.80;99.90;;;;;;5030020;28;20036;-87
2022/01/07 06:33:11;;;;;;;17.05;11.48;;;2.80;99.90;;;;;;5020336;28;20048;-86
2022/01/07 06:35:37;;;;;;;20.83;11.98;;;2.80;99.90;;;;;;5006287;28;20039;-85
2022/01/07 06:38:04;;;;;;;17.42;11.18;;;2.80;99.90;;;;;;5012762;28;20044;-86
2022/01/07 06:40:32;;;;;;;18.08;11.30;;;2.80;99.90;;;;;;5024724;28;20040;-86
2022/01/07 06:42:58;;;;;;;20.00;11.77;;;2.80;99.90;;;;;;5008236;28;20044;-85
2022/01/07 06:45:24;;;;;;;21.02;10.70;;;2.90;99.90;;;;;;4998053;28;20036;-85
2022/01/07 06:47:50;;;;;;;16.00;11.13;;;2.90;99.90;;;;;;5011228;28;20118;-85
2022/01/07 06:50:15;;;;;;;18.83;11.75;;;2.90;99.90;;;;;;5021840;28;20032;-86
2022/01/07 06:52:41;;;;;;;18.75;12.75;;;2.80;99.90;;;;;;4993819;28;20062;-85
2022/01/07 06:55:08;;;;;;;18.25;12.30;;;2.90;99.90;;;;;;5007203;28;20159;-87
2022/01/07 06:57:34;;;;;;;19.17;12.25;;;2.90;99.90;;;;;;5005507;28;20393;-84
2022/01/07 07:00:00;;;;;;;17.50;11.50;;;2.90;99.90;;;;;;5027161;28;20036;-86
2022/01/07 07:02:25;;;;;;;18.38;11.38;;;2.90;99.90;;;;;;5006004;28;20047;-85
2022/01/07 07:04:52;;;;;;;19.05;10.88;;;3.00;99.90;;;;;;5007416;28;20032;-86
2022/01/07 07:07:17;;;;;;;17.77;11.40;;;3.00;99.90;;;;;;5026002;28;20051;-86
2022/01/07 07:09:43;;;;;;;21.63;13.75;;;3.00;99.90;;;;;;5028077;28;20040;-87
2022/01/07 07:12:11;;;;;;;22.08;12.82;;;3.00;99.90;;;;;;5028601;28;20038;-85
2022/01/07 07:14:37;;;;;;;18.95;12.27;;;3.00;99.90;;;;;;5014129;28;20040;-85
2022/01/07 07:17:03;;;;;;;24.40;12.75;;;3.00;99.90;;;;;;5037936;28;20048;-85
2022/01/07 07:19:29;;;;;;;18.25;12.15;;;3.00;99.90;;;;;;5009027;28;20040;-85
2022/01/07 07:21:55;;;;;;;18.20;12.32;;;3.00;99.90;;;;;;5032596;28;21094;-86
2022/01/07 07:24:20;;;;;;;19.40;13.20;;;3.00;99.90;;;;;;5020272;28;20051;-85
2022/01/07 07:26:46;;;;;;;20.42;13.68;;;3.10;99.90;;;;;;5024384;28;20036;-87
2022/01/07 07:29:12;;;;;;;20.45;12.95;;;3.00;99.90;;;;;;5014792;28;20037;-87
2022/01/07 07:31:41;;;;;;;20.50;12.93;;;3.10;99.90;;;;;;5015322;28;20040;-86
2022/01/07 07:36:42;;;;;;;20.92;15.45;;;3.10;99.90;;;;;;5039472;28;20479;-86
2022/01/07 07:39:12;;;;;;;21.63;15.73;;;3.10;99.90;;;;;;5033651;28;20513;-87
2022/01/07 07:41:44;;;;;;;23.60;15.15;;;3.10;99.90;;;;;;5043351;28;20051;-86
2022/01/07 07:47:17;;;;;;;25.38;14.55;;;3.10;99.90;;;;;;5047489;28;20051;-88
2022/01/07 07:49:43;;;;;;;28.50;15.90;;;3.20;99.90;;;;;;5031374;28;20040;-86
2022/01/07 07:52:09;;;;;;;30.35;17.85;;;3.20;99.90;;;;;;5036087;28;20899;-85
2022/01/07 07:54:35;;;;;;;27.00;16.67;;;3.20;99.90;;;;;;5019860;28;20032;-86
2022/01/07 07:57:06;;;;;;;32.45;17.15;;;3.20;99.90;;;;;;5053217;28;20109;-87
2022/01/07 07:59:32;;;;;;;31.98;19.00;;;3.20;99.90;;;;;;5029176;28;20043;-85
2022/01/07 08:02:02;;;;;;;31.35;18.45;;;3.30;99.90;;;;;;5049032;28;20036;-85
2022/01/07 08:04:30;;;;;;;;;;;3.30;99.90;;;;;;5047738;28;20044;-86
2022/01/07 08:07:34;;;;;;;33.97;19.52;;;3.30;99.90;;;;;;5042437;28;19925;-84
2022/01/07 08:10:27;;;;;;;31.40;18.67;;;3.30;99.90;;;;;;5049291;28;20125;-86
2022/01/07 08:18:30;;;;;;;38.85;21.23;;;3.40;99.90;;;;;;5053045;28;20044;-86
2022/01/07 08:20:59;;;;;;;32.50;18.48;;;3.40;99.90;;;;;;5043805;28;20039;-86
2022/01/07 08:23:25;;;;;;;36.92;20.38;;;3.50;99.90;;;;;;5048646;28;20040;-84
2022/01/07 08:25:51;;;;;;;29.45;19.10;;;3.50;99.90;;;;;;5010021;28;20049;-86
2022/01/07 08:28:38;;;;;;;32.33;17.80;;;3.50;99.90;;;;;;5029946;28;20036;-86
2022/01/07 08:36:53;;;;;;;38.78;21.75;;;3.60;99.90;;;;;;5056387;28;20044;-85
2022/01/07 08:39:19;;;;;;;38.97;22.98;;;3.60;99.90;;;;;;5027199;28;20067;-85
2022/01/07 08:41:45;;;;;;;34.10;21.30;;;3.60;99.90;;;;;;5038249;28;20069;-85
2022/01/07 08:44:11;;;;;;;40.08;22.70;;;3.60;99.90;;;;;;5043591;28;20125;-85
2022/01/07 08:46:42;;;;;;;35.83;21.52;;;3.70;99.90;;;;;;5036876;28;20047;-87
2022/01/07 08:49:08;;;;;;;46.38;22.95;;;3.70;99.90;;;;;;5044033;28;20042;-84
2022/01/07 08:51:34;;;;;;;41.63;22.85;;;3.70;99.90;;;;;;5041175;28;20246;-86
2022/01/07 08:54:01;;;;;;;39.00;23.80;;;3.70;99.90;;;;;;5023684;28;20051;-85
2022/01/07 08:56:27;;;;;;;37.80;22.80;;;3.70;99.90;;;;;;5056433;23;20040;-83
2022/01/07 08:59:00;;;;;;;39.35;23.20;;;3.80;99.90;;;;;;5006387;28;20036;-85
2022/01/07 09:01:29;;;;;;;44.60;24.90;;;3.80;99.90;;;;;;5034735;28;20012;-84
2022/01/07 09:03:58;;;;;;;47.70;24.80;;;3.90;99.90;;;;;;5015407;28;20044;-85
2022/01/07 09:06:34;;;;;;;45.45;26.05;;;3.90;99.90;;;;;;5013612;28;20633;-84
2022/01/07 09:09:21;;;;;;;45.45;25.95;;;4.00;99.90;;;;;;5010550;28;20565;-85
2022/01/07 09:11:54;;;;;;;46.13;25.30;;;4.00;99.90;;;;;;4977579;28;20036;-86
2022/01/07 09:14:20;;;;;;;52.63;26.65;;;4.10;99.90;;;;;;5009863;28;20044;-86
2022/01/07 09:16:46;;;;;;;54.58;26.25;;;4.10;99.90;;;;;;5010416;28;20071;-84
2022/01/07 09:19:12;;;;;;;49.25;26.50;;;4.20;99.90;;;;;;5011317;28;20264;-84
2022/01/07 09:21:38;;;;;;;47.95;26.60;;;4.20;99.90;;;;;;4989904;28;20056;-85
2022/01/07 09:24:07;;;;;;;40.40;24.10;;;4.30;99.90;;;;;;5010455;28;20036;-85
2022/01/07 09:26:34;;;;;;;45.25;24.90;;;4.30;99.90;;;;;;4966402;28;20040;-84
2022/01/07 09:29:00;;;;;;;45.30;26.38;;;4.30;99.90;;;;;;4987563;28;20475;-85
2022/01/07 09:31:29;;;;;;;44.97;24.65;;;4.40;99.90;;;;;;4968492;28;20043;-85
2022/01/07 09:33:55;;;;;;;44.58;22.80;;;4.40;99.90;;;;;;4988043;28;20570;-84
2022/01/07 09:36:29;;;;;;;45.78;25.27;;;4.50;99.90;;;;;;4976572;28;20034;-87
2022/01/07 09:38:57;;;;;;;40.00;21.98;;;4.50;99.90;;;;;;5013893;28;20048;-86
2022/01/07 09:41:24;;;;;;;46.65;24.75;;;4.50;99.90;;;;;;5009403;28;20040;-86
2022/01/07 09:43:52;;;;;;;42.47;25.67;;;4.60;99.90;;;;;;4991126;28;20049;-86
2022/01/07 09:46:39;;;;;;;43.90;26.83;;;4.60;99.90;;;;;;5003308;28;20061;-84
2022/01/07 09:49:43;;;;;;;;;;;;;;;;;;;;;
2022/01/07 09:52:20;;;;;;;41.13;26.02;;;4.70;99.90;;;;;;4997987;28;20080;-85
2022/01/07 09:54:49;;;;;;;37.15;22.40;;;4.80;99.90;;;;;;4988065;28;21680;-86
2022/01/07 09:57:15;;;;;;;37.67;22.73;;;4.80;99.90;;;;;;5000099;28;20284;-85
2022/01/07 09:59:52;;;;;;;38.88;25.60;;;4.80;99.90;;;;;;4966841;28;20033;-85
2022/01/07 10:02:38;;;;;;;53.92;24.80;;;4.80;99.90;;;;;;5006343;28;20041;-87
2022/01/07 10:05:15;;;;;;;43.88;25.35;;;4.80;99.90;;;;;;5000234;28;20048;-87
2022/01/07 10:07:45;;;;;;;36.67;21.17;;;4.80;99.90;;;;;;5017424;28;20164;-85
2022/01/07 10:10:19;;;;;;;42.30;24.15;;;4.90;99.90;;;;;;5000604;28;20044;-86
2022/01/07 10:13:06;;;;;;;44.35;23.55;;;4.90;99.90;;;;;;5003336;28;20037;-84
2022/01/07 10:15:37;;;;;;;38.20;21.63;;;4.90;99.90;;;;;;4991008;28;20040;-85
2022/01/07 10:18:09;;;;;;;42.55;23.63;;;4.80;99.90;;;;;;4999998;28;20500;-86
2022/01/07 10:20:43;;;;;;;44.10;23.70;;;4.90;99.90;;;;;;5013989;28;20147;-84
2022/01/07 10:23:23;;;;;;;47.78;25.17;;;4.90;99.90;;;;;;4986696;28;20051;-84
2022/01/07 10:25:55;;;;;;;45.55;24.98;;;4.90;99.90;;;;;;4999752;28;20035;-84
2022/01/07 10:28:28;;;;;;;39.90;20.23;;;4.90;99.90;;;;;;5035932;28;20041;-85
2022/01/07 10:30:56;;;;;;;27.55;16.63;;;5.00;99.90;;;;;;5006811;28;20120;-84
2022/01/07 10:34:03;;;;;;;28.25;14.75;;;5.00;99.90;;;;;;4995829;28;20217;-84
2022/01/07 10:36:38;;;;;;;25.33;13.25;;;5.00;99.90;;;;;;5000371;28;20060;-84
2022/01/07 10:39:07;;;;;;;14.77;10.00;;;5.00;99.90;;;;;;4985076;28;20040;-85
2022/01/07 10:41:36;;;;;;;19.30;11.82;;;5.00;99.90;;;;;;4982352;28;20116;-84
2022/01/07 10:44:16;;;;;;;19.73;11.40;;;4.90;99.90;;;;;;4987025;28;20037;-84
2022/01/07 10:46:41;;;;;;;25.60;13.02;;;4.90;99.90;;;;;;4991410;28;20496;-84
2022/01/07 10:49:09;;;;;;;23.08;14.75;;;4.80;99.90;;;;;;4965971;28;20052;-84
2022/01/07 10:51:38;;;;;;;27.50;15.93;;;4.80;99.90;;;;;;4966185;28;20433;-84
2022/01/07 10:54:07;;;;;;;35.42;17.58;;;4.80;99.90;;;;;;4980446;28;20472;-85
2022/01/07 10:59:34;;;;;;;28.38;16.92;;;4.80;99.90;;;;;;5015408;28;20079;-86
2022/01/07 11:02:07;;;;;;;31.85;16.02;;;4.80;99.90;;;;;;4978771;28;20041;-84
2022/01/07 11:04:40;;;;;;;34.15;18.23;;;4.70;99.90;;;;;;4990046;28;20067;-84
2022/01/07 11:07:28;;;;;;;25.20;12.88;;;4.70;99.90;;;;;;4983566;28;20596;-84
2022/01/07 11:09:56;;;;;;;25.15;11.15;;;4.70;99.90;;;;;;5007414;28;20128;-84
2022/01/07 11:12:33;;;;;;;;;;;;;;;;;;;;;
2022/01/07 11:15:28;;;;;;;17.42;7.18;;;4.80;99.90;;;;;;5020472;28;20037;-85
2022/01/07 11:18:03;;;;;;;16.52;6.38;;;4.80;99.90;;;;;;5016540;28;20041;-84
2022/01/07 11:20:29;;;;;;;19.08;6.75;;;4.90;99.90;;;;;;5006537;28;20133;-85
2022/01/07 11:23:04;;;;;;;16.92;6.78;;;4.90;99.90;;;;;;5019578;28;20049;-86
2022/01/07 11:25:33;;;;;;;19.35;8.38;;;5.00;99.90;;;;;;4984282;28;20450;-84
2022/01/07 11:28:20;;;;;;;21.77;8.40;;;5.00;99.90;;;;;;5005450;28;20589;-84
2022/01/07 11:31:08;;;;;;;20.00;9.57;;;5.00;99.90;;;;;;5001800;28;20044;-84
2022/01/07 11:34:22;;;;;;;21.45;11.45;;;5.00;99.90;;;;;;4994276;28;20033;-85
2022/01/07 11:37:40;;;;;;;24.08;12.50;;;4.90;99.90;;;;;;5033743;28;20044;-86
2022/01/07 11:40:07;;;;;;;22.85;13.75;;;5.00;99.90;;;;;;4991744;28;20457;-84
2022/01/07 11:42:42;;;;;;;29.38;15.98;;;5.00;99.90;;;;;;4985138;28;20065;-87
2022/01/07 11:45:29;;;;;;;29.08;15.35;;;5.00;99.90;;;;;;5012207;28;20043;-85
2022/01/07 11:48:19;;;;;;;26.25;16.48;;;5.00;99.90;;;;;;5001659;28;20188;-85
2022/01/07 11:51:01;;;;;;;32.75;17.00;;;4.90;99.90;;;;;;4999876;28;21128;-84
2022/01/07 11:53:39;;;;;;;32.00;16.05;;;4.90;99.90;;;;;;5007040;28;21944;-85
2022/01/07 11:56:09;;;;;;;35.90;18.23;;;4.90;99.90;;;;;;5002262;28;20049;-85
2022/01/07 11:58:47;;;;;;;35.20;16.38;;;4.80;99.90;;;;;;4993217;28;20056;-84
2022/01/07 12:01:40;;;;;;;30.13;19.08;;;4.80;99.90;;;;;;5001819;28;20046;-83
2022/01/07 12:04:27;;;;;;;37.53;18.08;;;4.80;99.90;;;;;;5031153;28;20100;-84
2022/01/07 12:07:02;;;;;;;35.15;19.58;;;4.90;99.90;;;;;;5013733;28;20393;-85
2022/01/07 12:09:34;;;;;;;30.13;17.80;;;4.90;99.90;;;;;;4984501;28;20045;-85
2022/01/07 12:12:10;;;;;;;37.17;19.92;;;4.90;99.90;;;;;;5006894;28;20048;-88
2022/01/07 12:14:52;;;;;;;25.35;14.98;;;5.00;99.90;;;;;;5002140;28;20155;-85
2022/01/07 12:17:20;;;;;;;33.38;17.27;;;5.00;99.90;;;;;;5007814;28;20052;-85
2022/01/07 12:19:49;;;;;;;35.55;15.85;;;5.00;99.90;;;;;;4980824;28;20045;-85
2022/01/07 12:22:16;;;;;;;24.30;14.63;;;5.10;99.90;;;;;;5002654;28;20040;-85
2022/01/07 12:24:44;;;;;;;23.08;12.05;;;5.10;99.90;;;;;;4987872;28;20041;-86
2022/01/07 12:27:24;;;;;;;15.48;8.95;;;5.20;99.90;;;;;;4969333;28;20048;-84
2022/01/07 12:29:55;;;;;;;11.68;7.68;;;5.30;99.90;;;;;;4999926;28;20206;-84
2022/01/07 12:32:37;;;;;;;13.93;5.93;;;5.40;99.90;;;;;;5017922;28;20041;-86
2022/01/07 12:35:09;;;;;;;9.75;3.40;;;5.50;99.90;;;;;;4998944;28;20408;-85
2022/01/07 12:37:36;;;;;;;6.78;3.00;;;5.50;99.90;;;;;;5005535;28;20394;-84
2022/01/07 12:40:05;;;;;;;8.60;2.15;;;5.40;99.90;;;;;;4998476;28;20487;-84
2022/01/07 12:42:43;;;;;;;10.20;2.30;;;5.40;99.90;;;;;;5014315;28;20481;-85
2022/01/07 12:45:15;;;;;;;7.43;1.38;;;5.30;99.90;;;;;;5031502;28;20419;-83
2022/01/07 12:47:41;;;;;;;10.05;1.27;;;5.10;99.90;;;;;;5011281;28;20162;-83
2022/01/07 12:50:07;;;;;;;4.45;1.27;;;5.00;99.90;;;;;;5035080;28;20124;-85
2022/01/07 12:52:38;;;;;;;8.93;1.63;;;4.90;99.90;;;;;;4989698;28;20041;-84
2022/01/07 12:55:12;;;;;;;8.93;1.40;;;4.90;99.90;;;;;;5015193;28;20480;-85
2022/01/07 12:57:46;;;;;;;7.43;1.10;;;4.90;99.90;;;;;;5006478;28;20052;-86
2022/01/07 13:00:25;;;;;;;6.95;1.20;;;5.10;99.90;;;;;;4997511;28;20050;-84
2022/01/07 13:02:59;;;;;;;7.45;1.67;;;5.60;99.90;;;;;;5016539;28;20041;-85
2022/01/07 13:05:37;;;;;;;7.32;1.35;;;5.90;99.90;;;;;;5017980;28;20041;-85
2022/01/07 13:08:11;;;;;;;8.05;1.38;;;6.20;99.90;;;;;;5015849;28;20037;-86
2022/01/07 13:10:39;;;;;;;9.48;1.15;;;6.30;99.90;;;;;;4981827;28;20403;-85
2022/01/07 13:13:08;;;;;;;6.00;1.48;;;6.10;99.90;;;;;;5003095;28;20523;-86
2022/01/07 13:15:58;;;;;;;5.53;1.40;;;5.80;99.90;;;;;;5021089;28;20037;-84